Time;durP1;ratioP1;P1;durP2;ratioP2;P2;SDS_P1;SDS_P2;PMS_P1;PMS_P2;Temp;Humidity;BMP_temperature;BMP_pressure;BME280_temperature;BME280_humidity;BME280_pressure;Samples;Min_cycle;Max_cycle;Signal;HPM_P1;HPM_P2
2022/01/24 00:00:13;;;;;;;10.52;6.68;;;5.00;99.90;;;;;;4879744;29;20074;-83
2022/01/24 00:02:44;;;;;;;10.05;6.38;;;5.30;99.90;;;;;;4879669;29;20055;-83
2022/01/24 00:05:35;;;;;;;9.43;6.72;;;5.70;99.90;;;;;;4893990;29;20044;-83
2022/01/24 00:08:31;;;;;;;7.85;6.00;;;5.90;99.90;;;;;;4891023;29;20059;-83
2022/01/24 00:11:14;;;;;;;9.93;5.78;;;5.20;99.90;;;;;;4894678;29;20064;-82
2022/01/24 00:28:21;;;;;;;10.30;6.32;;;5.20;99.90;;;;;;4894682;29;20055;-83
2022/01/24 00:30:48;;;;;;;12.13;6.10;;;6.30;99.90;;;;;;4894694;29;20044;-83
2022/01/24 00:33:29;;;;;;;7.50;6.00;;;5.20;99.90;;;;;;4875785;29;20068;-83
2022/01/24 00:36:01;;;;;;;9.82;5.88;;;5.20;99.90;;;;;;4894423;29;20080;-83
2022/01/24 00:38:37;;;;;;;7.72;5.13;;;5.80;99.90;;;;;;4896003;29;20087;-82
2022/01/24 00:41:04;;;;;;;9.73;6.03;;;5.20;99.90;;;;;;4878030;29;20057;-83
2022/01/24 00:44:02;;;;;;;7.55;5.22;;;5.20;99.90;;;;;;4877068;29;20229;-82
2022/01/24 00:46:45;;;;;;;10.23;5.30;;;5.10;99.90;;;;;;4893733;29;20463;-83
2022/01/24 00:49:50;;;;;;;8.35;5.50;;;5.40;99.90;;;;;;4878794;29;20511;-83
2022/01/24 00:55:09;;;;;;;7.85;5.38;;;5.20;99.90;;;;;;4910566;29;20075;-83
2022/01/24 00:57:59;;;;;;;10.05;5.85;;;5.20;99.90;;;;;;4894680;29;20122;-83
2022/01/24 01:00:40;;;;;;;8.23;4.82;;;6.10;99.90;;;;;;4893324;29;20690;-83
2022/01/24 01:03:09;;;;;;;7.20;5.43;;;5.00;99.90;;;;;;4878523;29;20051;-84
2022/01/24 01:06:06;;;;;;;8.38;5.82;;;4.30;99.90;;;;;;4894103;29;20149;-86
2022/01/24 01:58:17;;;;;;;7.88;5.68;;;4.90;99.90;;;;;;4910230;29;20620;-84
2022/01/24 02:01:34;;;;;;;10.15;5.45;;;4.60;99.90;;;;;;4894752;29;20593;-84
2022/01/24 02:05:00;;;;;;;10.75;5.53;;;4.90;99.90;;;;;;4916661;29;20416;-84
2022/01/24 02:08:10;;;;;;;7.85;5.30;;;4.90;99.90;;;;;;4859619;29;20056;-83
2022/01/24 02:10:46;;;;;;;7.78;5.45;;;5.10;99.90;;;;;;4853837;29;20051;-84
2022/01/24 02:13:34;;;;;;;9.27;5.53;;;4.80;99.90;;;;;;4900288;29;20067;-83
2022/01/24 02:16:24;;;;;;;8.95;4.82;;;4.80;99.90;;;;;;4896841;29;20067;-83
2022/01/24 02:24:52;;;;;;;8.10;5.43;;;4.30;99.90;;;;;;4912580;29;20040;-83
2022/01/24 02:27:40;;;;;;;8.43;5.57;;;3.80;99.90;;;;;;4895279;29;20550;-83
2022/01/24 02:30:37;;;;;;;7.85;4.93;;;5.90;99.90;;;;;;4896775;29;20563;-83
2022/01/24 02:33:08;;;;;;;7.22;4.72;;;5.00;99.90;;;;;;4895951;29;20107;-83
2022/01/24 02:35:50;;;;;;;8.90;5.05;;;5.80;99.90;;;;;;4896277;29;20062;-84
2022/01/24 02:50:55;;;;;;;9.13;5.35;;;5.60;99.90;;;;;;4915264;29;20048;-83
2022/01/24 02:53:19;;;;;;;8.32;5.07;;;5.60;99.90;;;;;;4929294;29;20138;-83
2022/01/24 02:56:04;;;;;;;8.20;5.50;;;5.80;99.90;;;;;;4899775;29;20448;-83
2022/01/24 02:58:30;;;;;;;7.57;5.47;;;4.70;99.90;;;;;;4898504;29;20082;-84
2022/01/24 03:01:19;;;;;;;11.13;5.40;;;4.70;99.90;;;;;;4898914;29;20048;-83
2022/01/24 03:03:50;;;;;;;6.78;5.00;;;4.70;99.90;;;;;;4895884;29;20044;-84
2022/01/24 03:06:39;;;;;;;8.75;5.43;;;5.40;99.90;;;;;;4880319;29;20067;-83
2022/01/24 03:09:27;;;;;;;8.80;5.63;;;4.70;99.90;;;;;;4895836;29;20044;-83
2022/01/24 03:12:12;;;;;;;9.88;5.78;;;4.50;99.90;;;;;;4881015;29;20050;-84
2022/01/24 03:14:51;;;;;;;10.38;5.65;;;4.70;99.90;;;;;;4879987;29;20501;-84
2022/01/24 03:17:17;;;;;;;8.68;5.95;;;5.10;99.90;;;;;;4895407;29;20154;-83
2022/01/24 03:20:10;;;;;;;9.32;5.70;;;4.60;99.90;;;;;;4880853;29;20122;-83
2022/01/24 03:22:47;;;;;;;8.77;5.95;;;4.20;99.90;;;;;;4895313;29;20056;-83
2022/01/24 03:25:25;;;;;;;8.65;6.03;;;4.60;99.90;;;;;;4912322;29;20062;-84
2022/01/24 03:28:49;;;;;;;9.43;6.22;;;4.70;99.90;;;;;;4896444;29;20419;-84
2022/01/24 03:31:42;;;;;;;8.10;5.93;;;4.60;99.90;;;;;;4824222;29;20468;-84
2022/01/24 03:34:22;;;;;;;9.05;5.97;;;4.60;99.90;;;;;;4819746;29;20522;-83
2022/01/24 03:36:48;;;;;;;8.00;5.75;;;5.70;99.90;;;;;;4894195;29;20135;-83
2022/01/24 03:39:31;;;;;;;8.80;6.07;;;4.60;99.90;;;;;;4895838;29;20104;-83
2022/01/24 03:41:56;;;;;;;10.60;6.47;;;5.20;99.90;;;;;;4910083;29;20064;-83
2022/01/24 03:44:50;;;;;;;11.00;6.60;;;4.00;99.90;;;;;;4879038;29;20232;-83
2022/01/24 03:50:19;;;;;;;8.68;6.20;;;4.90;99.90;;;;;;4894635;29;20515;-83
2022/01/24 03:53:52;;;;;;;10.45;6.43;;;4.60;99.90;;;;;;4895362;29;20055;-83
2022/01/24 03:56:04;;;;;;;9.50;6.40;;;5.40;99.90;;;;;;4890214;29;20052;-83
2022/01/24 03:58:50;;;;;;;9.68;6.60;;;4.60;99.90;;;;;;4878666;29;20127;-83
2022/01/24 04:01:35;;;;;;;;;;;;;;;;;;;;;
2022/01/24 04:04:10;;;;;;;10.02;6.95;;;4.00;99.90;;;;;;4894508;29;20078;-83
2022/01/24 04:06:59;;;;;;;12.63;7.38;;;5.30;99.90;;;;;;4895149;29;20052;-83
2022/01/24 04:09:25;;;;;;;11.55;6.75;;;4.50;99.90;;;;;;4894806;29;20140;-83
2022/01/24 04:12:01;;;;;;;10.55;7.50;;;5.10;99.90;;;;;;4894482;29;20084;-83
2022/01/24 04:14:55;;;;;;;9.68;6.53;;;4.90;99.90;;;;;;4894550;29;20048;-83
2022/01/24 04:17:36;;;;;;;10.75;6.93;;;4.50;99.90;;;;;;4893846;29;20059;-83
2022/01/24 04:23:03;;;;;;;9.20;6.82;;;4.50;99.90;;;;;;4894813;29;20055;-84
2022/01/24 04:26:16;;;;;;;10.27;7.47;;;5.10;99.90;;;;;;4893878;29;20134;-83
2022/01/24 04:28:42;;;;;;;12.68;7.75;;;4.60;99.90;;;;;;4864611;29;20573;-84
2022/01/24 04:31:15;;;;;;;10.70;7.82;;;4.50;99.90;;;;;;4895026;29;20083;-83
2022/01/24 04:33:43;;;;;;;11.88;7.80;;;4.40;99.90;;;;;;4894192;29;20114;-84
2022/01/24 04:39:44;;;;;;;11.95;8.00;;;3.90;99.90;;;;;;4864493;29;20060;-84
2022/01/24 04:42:16;;;;;;;13.52;8.60;;;4.90;99.90;;;;;;4876500;29;20048;-83
2022/01/24 04:51:16;;;;;;;10.85;8.45;;;4.40;99.90;;;;;;4874775;29;20122;-83
2022/01/24 04:56:34;;;;;;;14.15;9.07;;;4.60;99.90;;;;;;4875967;29;20473;-84
2022/01/24 04:59:00;;;;;;;12.13;8.77;;;5.30;99.90;;;;;;4875621;29;20441;-81
2022/01/24 05:01:26;;;;;;;13.38;9.25;;;4.40;99.90;;;;;;4859310;29;20063;-81
2022/01/24 05:03:52;;;;;;;16.05;10.40;;;4.50;99.90;;;;;;4860133;29;20045;-80
2022/01/24 05:06:18;;;;;;;13.43;9.02;;;4.60;99.90;;;;;;4874499;29;20052;-80
2022/01/24 05:08:53;;;;;;;15.13;10.43;;;5.50;99.90;;;;;;4875084;29;20105;-81
2022/01/24 05:11:32;;;;;;;13.18;9.20;;;5.50;99.90;;;;;;4860644;29;20554;-81
2022/01/24 05:24:46;;;;;;;16.17;10.55;;;4.60;99.90;;;;;;4877182;29;20107;-80
2022/01/24 05:27:31;;;;;;;16.45;10.68;;;5.20;99.90;;;;;;4879364;29;20473;-81
2022/01/24 05:29:59;;;;;;;15.90;9.93;;;4.60;99.90;;;;;;4894975;29;20053;-81
2022/01/24 05:32:24;;;;;;;17.23;11.00;;;4.90;99.90;;;;;;4862598;29;20052;-80
2022/01/24 05:34:51;;;;;;;16.23;10.75;;;5.10;99.90;;;;;;4893954;29;20135;-81
2022/01/24 05:37:17;;;;;;;14.75;10.38;;;5.30;99.90;;;;;;4894878;29;20058;-80
2022/01/24 05:40:06;;;;;;;16.83;11.02;;;5.10;99.90;;;;;;4897020;29;20044;-81
2022/01/24 05:42:57;;;;;;;16.67;10.43;;;4.60;99.90;;;;;;4852770;29;20055;-81
2022/01/24 05:45:42;;;;;;;16.20;10.75;;;4.50;99.90;;;;;;4900431;29;20142;-81
2022/01/24 05:48:11;;;;;;;16.35;11.25;;;5.30;99.90;;;;;;4915823;29;20055;-81
2022/01/24 05:50:55;;;;;;;16.52;10.98;;;4.50;99.90;;;;;;4900126;29;20051;-81
2022/01/24 05:53:29;;;;;;;17.35;10.77;;;4.30;99.90;;;;;;4897325;29;20048;-81
2022/01/24 05:56:07;;;;;;;17.50;12.20;;;4.50;99.90;;;;;;4895878;29;20096;-81
2022/01/24 05:58:33;;;;;;;17.98;12.52;;;4.70;99.90;;;;;;4881768;29;20047;-81
2022/01/24 06:01:14;;;;;;;16.45;11.65;;;4.10;99.90;;;;;;4881909;29;20408;-81
2022/01/24 06:03:40;;;;;;;19.90;12.75;;;4.50;99.90;;;;;;4896218;29;20488;-81
2022/01/24 06:06:08;;;;;;;18.77;12.43;;;4.60;99.90;;;;;;4897206;29;20044;-81
2022/01/24 06:08:45;;;;;;;18.98;13.20;;;5.10;99.90;;;;;;4882251;29;20095;-81
2022/01/24 06:11:12;;;;;;;19.08;12.82;;;5.50;99.90;;;;;;4881218;29;20429;-81
2022/01/24 06:13:48;;;;;;;;;;;;;;;;;;;;;
2022/01/24 06:16:58;;;;;;;20.15;14.35;;;4.50;99.90;;;;;;4913994;29;20142;-81
2022/01/24 06:19:28;;;;;;;19.70;13.70;;;4.40;99.90;;;;;;4912472;29;20087;-81
2022/01/24 06:22:17;;;;;;;19.40;13.07;;;4.50;99.90;;;;;;4895908;29;20516;-81
2022/01/24 06:24:49;;;;;;;21.17;12.88;;;4.50;99.90;;;;;;4880591;29;20521;-81
2022/01/24 06:27:27;;;;;;;20.30;14.00;;;4.60;99.90;;;;;;4879835;29;20055;-81
2022/01/24 06:29:52;;;;;;;20.02;13.52;;;3.90;99.90;;;;;;4881662;29;20134;-81
2022/01/24 06:32:38;;;;;;;21.42;14.43;;;5.30;99.90;;;;;;4894632;29;20134;-81
2022/01/24 06:35:12;;;;;;;19.10;12.95;;;4.50;99.90;;;;;;4879922;29;20106;-81
2022/01/24 06:37:38;;;;;;;19.90;13.20;;;4.10;99.90;;;;;;4880627;29;20123;-81
2022/01/24 06:40:09;;;;;;;19.52;13.40;;;4.80;99.90;;;;;;4879665;29;20508;-81
2022/01/24 06:42:44;;;;;;;17.90;13.05;;;4.50;99.90;;;;;;4895985;29;20048;-82
2022/01/24 06:45:28;;;;;;;21.58;13.60;;;4.50;99.90;;;;;;4880242;29;20052;-81
2022/01/24 06:48:05;;;;;;;17.98;12.80;;;5.30;99.90;;;;;;4880184;29;20047;-81
2022/01/24 06:50:36;;;;;;;19.88;13.15;;;4.50;99.90;;;;;;4880487;29;20147;-81
2022/01/24 06:53:15;;;;;;;20.65;13.00;;;5.50;99.90;;;;;;4891283;29;20438;-81
2022/01/24 06:55:41;;;;;;;21.15;13.73;;;4.50;99.90;;;;;;4880377;29;20047;-81
2022/01/24 06:58:24;;;;;;;20.20;13.93;;;4.50;99.90;;;;;;4895545;29;20374;-81
2022/01/24 07:01:11;;;;;;;20.17;13.80;;;3.70;99.90;;;;;;4879993;29;20052;-81
2022/01/24 07:03:37;;;;;;;18.52;14.02;;;4.40;99.90;;;;;;4895552;29;20055;-81
2022/01/24 07:06:19;;;;;;;22.63;13.80;;;4.40;99.90;;;;;;4879579;29;20395;-81
2022/01/24 07:08:44;;;;;;;17.73;12.27;;;4.50;99.90;;;;;;4880146;29;20064;-81
2022/01/24 07:11:21;;;;;;;20.58;14.10;;;4.10;99.90;;;;;;4896842;29;20059;-81
2022/01/24 07:14:40;;;;;;;20.52;13.40;;;4.60;99.90;;;;;;4879303;29;20279;-82
2022/01/24 07:17:44;;;;;;;19.55;14.20;;;4.40;99.90;;;;;;4879971;29;20103;-81
2022/01/24 07:20:08;;;;;;;19.45;12.45;;;5.60;99.90;;;;;;4895409;29;20587;-81
2022/01/24 07:22:33;;;;;;;17.10;12.55;;;4.50;99.90;;;;;;4894707;29;20554;-81
2022/01/24 07:25:41;;;;;;;22.70;13.05;;;4.40;99.90;;;;;;4895873;29;20067;-82
2022/01/24 07:28:10;;;;;;;18.38;12.68;;;4.30;99.90;;;;;;4858048;29;20174;-82
2022/01/24 07:30:36;;;;;;;18.17;12.38;;;4.50;99.90;;;;;;4880462;29;20115;-82
2022/01/24 07:33:19;;;;;;;17.23;12.20;;;4.40;99.90;;;;;;4895792;29;20075;-82
2022/01/24 07:35:46;;;;;;;16.60;12.40;;;4.40;99.90;;;;;;4878856;29;20119;-82
2022/01/24 07:38:19;;;;;;;17.77;12.75;;;4.50;99.90;;;;;;4880158;29;20401;-81
2022/01/24 07:40:50;;;;;;;19.63;12.82;;;4.40;99.90;;;;;;4879641;29;20072;-81
2022/01/24 07:43:30;;;;;;;20.15;12.60;;;4.10;99.90;;;;;;4879871;29;20095;-81
2022/01/24 07:45:56;;;;;;;18.75;13.93;;;5.50;99.90;;;;;;4895593;29;20087;-82
2022/01/24 07:48:27;;;;;;;18.00;12.52;;;5.40;99.90;;;;;;4877792;29;20056;-82
2022/01/24 07:50:53;;;;;;;18.70;12.02;;;4.50;99.90;;;;;;4879506;29;20048;-82
2022/01/24 07:53:58;;;;;;;19.63;13.02;;;4.60;99.90;;;;;;4889512;29;20119;-82
2022/01/24 07:59:49;;;;;;;18.80;12.80;;;4.50;99.90;;;;;;4893013;29;20063;-82
2022/01/24 08:02:44;;;;;;;20.55;13.05;;;4.50;99.90;;;;;;4875088;29;20446;-82
2022/01/24 08:05:13;;;;;;;17.77;12.30;;;4.50;99.90;;;;;;4852008;29;20405;-81
2022/01/24 08:07:50;;;;;;;25.02;13.70;;;4.40;99.90;;;;;;4876183;29;20044;-82
2022/01/24 08:10:19;;;;;;;17.42;12.13;;;4.50;99.90;;;;;;4875269;29;20557;-82
2022/01/24 08:12:45;;;;;;;19.10;13.75;;;4.50;99.90;;;;;;4875777;29;20059;-81
2022/01/24 08:15:24;;;;;;;20.55;14.05;;;4.50;99.90;;;;;;4876268;29;20132;-82
2022/01/24 08:18:04;;;;;;;20.10;13.95;;;5.40;99.90;;;;;;4874501;29;20056;-82
2022/01/24 08:20:30;;;;;;;18.52;13.70;;;4.90;99.90;;;;;;4875789;29;20374;-82
2022/01/24 08:23:13;;;;;;;18.83;13.38;;;4.50;99.90;;;;;;4875435;29;20041;-81
2022/01/24 08:26:12;;;;;;;17.75;12.68;;;4.50;99.90;;;;;;4875256;29;20062;-82
2022/01/24 08:29:02;;;;;;;15.88;11.98;;;4.60;99.90;;;;;;4877609;29;20072;-82
2022/01/24 08:31:44;;;;;;;19.45;11.75;;;4.60;99.90;;;;;;4875104;29;20524;-82
2022/01/24 08:34:10;;;;;;;17.80;12.17;;;5.50;99.90;;;;;;4875698;29;20050;-82
2022/01/24 08:36:36;;;;;;;19.33;12.95;;;5.10;99.90;;;;;;4874914;29;20308;-82
2022/01/24 08:39:08;;;;;;;16.15;11.55;;;4.60;99.90;;;;;;4892141;29;20086;-82
2022/01/24 08:48:50;;;;;;;19.25;12.50;;;4.70;99.90;;;;;;4890875;29;20071;-83
2022/01/24 08:51:37;;;;;;;20.35;12.93;;;4.60;99.90;;;;;;4874803;29;20052;-82
2022/01/24 08:54:04;;;;;;;18.05;13.02;;;4.70;99.90;;;;;;4875612;29;20084;-82
2022/01/24 08:57:10;;;;;;;17.80;11.88;;;4.60;99.90;;;;;;4875075;29;20052;-82
2022/01/24 08:59:44;;;;;;;19.27;13.27;;;4.90;99.90;;;;;;4874657;29;20196;-83
2022/01/24 09:02:30;;;;;;;19.20;12.85;;;5.80;99.90;;;;;;4890736;29;20053;-81
2022/01/24 09:05:23;;;;;;;;;;;;;;;;;;;;;
2022/01/24 09:08:13;;;;;;;20.88;13.40;;;4.80;99.90;;;;;;4889673;29;20169;-82
2022/01/24 09:10:53;;;;;;;19.63;13.75;;;4.80;99.90;;;;;;4859929;29;20140;-82
2022/01/24 09:13:37;;;;;;;;;;;;;;;;;;;;;
2022/01/24 09:17:02;;;;;;;18.58;13.68;;;4.90;99.90;;;;;;4892840;29;20059;-82
2022/01/24 09:23:29;;;;;;;21.63;14.65;;;5.50;99.90;;;;;;4883611;29;20051;-82
2022/01/24 09:26:01;;;;;;;18.65;13.23;;;4.90;99.90;;;;;;4874478;29;20067;-82
2022/01/24 09:28:37;;;;;;;21.13;14.18;;;5.50;99.90;;;;;;4875136;29;20063;-82
2022/01/24 09:31:13;;;;;;;24.10;16.63;;;4.90;99.90;;;;;;4875695;29;20092;-82
2022/01/24 09:33:57;;;;;;;20.50;14.45;;;4.90;99.90;;;;;;4890130;29;20087;-82
2022/01/24 09:36:43;;;;;;;19.63;14.15;;;4.90;99.90;;;;;;4874404;29;20055;-82
2022/01/24 09:39:09;;;;;;;;;;;5.00;99.90;;;;;;4879794;29;20546;-81
2022/01/24 09:41:34;;;;;;;22.83;15.25;;;5.00;99.90;;;;;;4893070;29;20635;-81
2022/01/24 09:44:00;;;;;;;27.73;17.65;;;4.90;99.90;;;;;;4878198;29;20080;-82
2022/01/24 09:46:26;;;;;;;26.63;17.60;;;5.00;99.90;;;;;;4894017;29;20761;-81
2022/01/24 09:49:07;;;;;;;31.45;19.38;;;5.10;99.90;;;;;;4877536;29;20107;-81
2022/01/24 09:51:40;;;;;;;28.00;18.92;;;5.50;99.90;;;;;;4893198;29;20079;-82
2022/01/24 09:54:54;;;;;;;29.33;18.95;;;5.10;99.90;;;;;;4878673;29;20530;-82
2022/01/24 09:57:20;;;;;;;;;;;4.70;99.90;;;;;;4875213;29;20127;-82
2022/01/24 10:00:08;;;;;;;28.85;17.60;;;5.40;99.90;;;;;;4895543;29;20017;-81
2022/01/24 10:02:36;;;;;;;28.25;19.10;;;5.00;99.90;;;;;;4892148;29;20517;-81
2022/01/24 10:05:45;;;;;;;32.75;20.98;;;4.80;99.90;;;;;;4878225;29;20135;-82
2022/01/24 10:09:05;;;;;;;32.78;22.10;;;5.10;99.90;;;;;;4881845;29;20099;-83
2022/01/24 10:12:16;;;;;;;42.45;24.77;;;5.20;99.90;;;;;;4847137;29;20485;-82
2022/01/24 10:18:44;;;;;;;35.75;24.75;;;5.10;99.90;;;;;;4906611;29;20130;-82
2022/01/24 10:21:17;;;;;;;43.60;24.42;;;5.00;99.90;;;;;;4904517;23;20151;-82
2022/01/24 10:24:05;;;;;;;40.28;23.65;;;5.20;99.90;;;;;;4899152;29;20055;-84
2022/01/24 10:26:31;;;;;;;36.30;23.45;;;5.30;99.90;;;;;;4915455;29;20132;-82
2022/01/24 10:28:57;;;;;;;37.08;23.85;;;5.30;99.90;;;;;;4899149;29;20079;-82
2022/01/24 10:31:28;;;;;;;43.10;27.15;;;4.70;99.90;;;;;;4898336;29;20047;-82
2022/01/24 10:34:16;;;;;;;36.85;25.23;;;5.30;99.90;;;;;;4914815;29;20059;-82
2022/01/24 10:36:47;;;;;;;36.67;24.35;;;5.30;99.90;;;;;;4898514;29;20467;-82
2022/01/24 10:39:13;;;;;;;40.28;27.20;;;5.30;99.90;;;;;;4914193;29;20060;-82
2022/01/24 10:42:11;;;;;;;43.38;26.67;;;5.40;99.90;;;;;;4914031;29;20173;-81
2022/01/24 10:44:34;;;;;;;48.33;30.55;;;5.30;99.90;;;;;;4894991;29;20056;-81
2022/01/24 10:47:28;;;;;;;47.88;30.60;;;5.40;99.90;;;;;;4895034;29;20052;-81
2022/01/24 10:50:04;;;;;;;49.08;28.50;;;5.30;99.90;;;;;;4895857;29;20056;-81
2022/01/24 10:52:33;;;;;;;47.50;29.65;;;6.10;99.90;;;;;;4894960;29;20044;-80
2022/01/24 10:55:20;;;;;;;46.90;30.48;;;6.80;99.90;;;;;;4911716;29;20090;-81
2022/01/24 10:57:49;;;;;;;47.38;28.92;;;6.00;99.90;;;;;;4896249;29;20092;-81
2022/01/24 11:00:28;;;;;;;45.88;28.02;;;5.40;99.90;;;;;;4888217;29;20063;-80
2022/01/24 11:03:02;;;;;;;48.58;29.55;;;5.30;99.90;;;;;;4905082;29;20112;-81
2022/01/24 11:05:35;;;;;;;48.45;30.23;;;5.40;99.90;;;;;;4914130;29;20058;-80
2022/01/24 11:08:09;;;;;;;46.63;28.35;;;6.40;99.90;;;;;;4910468;29;20047;-81
2022/01/24 11:10:38;;;;;;;49.88;29.98;;;6.20;99.90;;;;;;4896151;29;20060;-81
2022/01/24 11:13:05;;;;;;;46.13;28.42;;;5.40;99.90;;;;;;4895204;29;20040;-82
2022/01/24 11:15:34;;;;;;;42.97;27.55;;;6.10;99.90;;;;;;4895108;29;20087;-81
2022/01/24 11:18:01;;;;;;;37.50;24.77;;;5.40;99.90;;;;;;4894165;29;20184;-82
2022/01/24 11:20:31;;;;;;;41.70;26.20;;;5.30;99.90;;;;;;4893584;29;20465;-82
2022/01/24 11:23:01;;;;;;;39.92;24.92;;;6.00;99.90;;;;;;4911166;29;20052;-82
2022/01/24 11:25:30;;;;;;;43.80;27.70;;;5.50;99.90;;;;;;4894926;29;20056;-82
2022/01/24 11:27:56;;;;;;;43.33;26.55;;;6.00;99.90;;;;;;4910142;29;20131;-82
2022/01/24 11:30:27;;;;;;;40.97;25.60;;;6.00;99.90;;;;;;4895252;29;20429;-81
2022/01/24 11:32:58;;;;;;;43.03;27.05;;;5.30;99.90;;;;;;4894754;29;20052;-82
2022/01/24 11:35:36;;;;;;;44.45;27.25;;;5.20;99.90;;;;;;4893616;29;20056;-82
2022/01/24 11:38:27;;;;;;;49.55;28.02;;;5.40;99.90;;;;;;4894968;29;20059;-85
2022/01/24 11:41:01;;;;;;;45.85;27.17;;;4.90;99.90;;;;;;4894277;29;20477;-81
2022/01/24 11:43:55;;;;;;;;;;;;;;;;;;;;;
2022/01/24 11:47:14;;;;;;;57.42;34.80;;;5.70;99.90;;;;;;4893715;29;20037;-83
2022/01/24 11:49:42;;;;;;;56.28;34.72;;;5.40;99.90;;;;;;4893321;29;20361;-84
2022/01/24 11:52:34;;;;;;;58.33;34.15;;;4.90;99.90;;;;;;4911602;29;20386;-84
2022/01/24 11:55:26;;;;;;;;;;;;;;;;;;;;;
2022/01/24 11:58:08;;;;;;;49.88;31.70;;;5.60;99.90;;;;;;4910789;29;20066;-83
2022/01/24 12:00:40;;;;;;;53.47;34.83;;;5.80;99.90;;;;;;4879387;29;20044;-83
2022/01/24 12:03:23;;;;;;;53.53;33.97;;;5.30;99.90;;;;;;4909450;29;20048;-83
2022/01/24 12:05:53;;;;;;;;;;;4.60;99.90;;;;;;4910558;29;20123;-83
2022/01/24 12:08:30;;;;;;;63.95;35.92;;;5.40;99.90;;;;;;4878908;29;19923;-84
2022/01/24 12:11:21;;;;;;;52.90;33.83;;;6.30;99.90;;;;;;4878765;29;20056;-83
2022/01/24 12:13:51;;;;;;;54.58;32.55;;;5.70;99.90;;;;;;4910756;29;20060;-83
2022/01/24 12:16:17;;;;;;;54.50;32.63;;;6.30;99.90;;;;;;4909906;29;20082;-83
2022/01/24 12:18:46;;;;;;;54.25;31.35;;;6.30;99.90;;;;;;4909821;29;20126;-84
2022/01/24 12:21:14;;;;;;;49.03;30.95;;;6.20;99.90;;;;;;4894188;29;20064;-83
2022/01/24 12:23:43;;;;;;;49.72;30.98;;;5.30;99.90;;;;;;4859627;29;20067;-83
2022/01/24 12:26:52;;;;;;;51.22;31.13;;;5.80;99.90;;;;;;4891229;29;20147;-83
2022/01/24 12:29:06;;;;;;;50.92;29.08;;;5.40;99.90;;;;;;4871158;29;20422;-83
2022/01/24 12:31:35;;;;;;;47.22;29.38;;;6.40;99.90;;;;;;4858938;29;20051;-82
2022/01/24 12:34:08;;;;;;;51.80;31.27;;;6.40;99.90;;;;;;4891392;29;20143;-83
2022/01/24 12:36:38;;;;;;;48.47;30.90;;;5.30;99.90;;;;;;4874599;29;20059;-83
2022/01/24 12:39:13;;;;;;;47.70;30.52;;;4.60;99.90;;;;;;4874988;29;20059;-83
2022/01/24 12:41:46;;;;;;;50.53;32.88;;;5.30;99.90;;;;;;4860512;29;20253;-83
2022/01/24 12:47:07;;;;;;;55.08;34.80;;;5.20;99.90;;;;;;4874826;29;20052;-84
2022/01/24 12:50:14;;;;;;;;;;;;;;;;;;;;;
2022/01/24 12:56:33;;;;;;;55.47;34.28;;;5.30;99.90;;;;;;4892082;29;20087;-84
2022/01/24 12:59:51;;;;;;;56.58;32.72;;;5.40;99.90;;;;;;4858463;29;20476;-84
2022/01/24 13:02:24;;;;;;;52.55;34.60;;;5.50;99.90;;;;;;4850645;29;20053;-84
2022/01/24 13:04:52;;;;;;;57.60;35.53;;;5.40;99.90;;;;;;4859179;29;20052;-83
2022/01/24 13:07:18;;;;;;;55.58;35.90;;;5.30;99.90;;;;;;4889710;29;20151;-83
2022/01/24 13:09:48;;;;;;;54.50;34.30;;;5.40;99.90;;;;;;4890526;29;20051;-83
2022/01/24 13:12:16;;;;;;;59.08;35.13;;;4.60;99.90;;;;;;4889791;29;20127;-82
2022/01/24 13:14:49;;;;;;;58.10;35.88;;;5.40;99.90;;;;;;4860419;29;20138;-82
2022/01/24 13:22:53;;;;;;;56.10;36.58;;;6.00;99.90;;;;;;4892144;29;20449;-82
2022/01/24 13:25:23;;;;;;;57.58;35.08;;;5.30;99.90;;;;;;4908367;29;20111;-82
2022/01/24 13:27:52;;;;;;;56.95;34.30;;;5.30;99.90;;;;;;4907803;29;20107;-82
2022/01/24 13:30:25;;;;;;;56.83;34.88;;;5.70;99.90;;;;;;4908358;29;20107;-82
2022/01/24 13:32:53;;;;;;;59.55;36.05;;;5.40;99.90;;;;;;4908192;29;20070;-82
2022/01/24 13:35:32;;;;;;;61.35;35.60;;;5.60;99.90;;;;;;4907505;29;20051;-82
2022/01/24 13:38:22;;;;;;;55.65;34.90;;;5.20;99.90;;;;;;4892635;29;20048;-82
2022/01/24 13:40:55;;;;;;;52.75;33.60;;;5.20;99.90;;;;;;4891584;29;20123;-82
2022/01/24 13:43:39;;;;;;;48.13;32.65;;;5.20;99.90;;;;;;4879806;29;20040;-82
2022/01/24 13:46:19;;;;;;;55.58;34.60;;;5.20;99.90;;;;;;4881091;29;20054;-83
2022/01/24 13:49:11;;;;;;;52.08;32.45;;;6.00;99.90;;;;;;4879707;29;20052;-83
2022/01/24 13:52:11;;;;;;;44.15;27.65;;;4.70;99.90;;;;;;4909927;29;20580;-83
2022/01/24 13:54:54;;;;;;;45.45;28.13;;;5.20;99.90;;;;;;4911638;29;20047;-82
2022/01/24 13:57:20;;;;;;;51.15;28.40;;;6.10;99.90;;;;;;4895834;29;20043;-82
2022/01/24 13:59:49;;;;;;;41.92;27.25;;;5.20;99.90;;;;;;4880541;29;20191;-82
2022/01/24 14:02:19;;;;;;;42.92;26.98;;;5.40;99.90;;;;;;4879299;29;20435;-83
2022/01/24 14:04:52;;;;;;;41.67;27.52;;;5.10;99.90;;;;;;4880362;29;20067;-83
2022/01/24 14:07:30;;;;;;;39.88;26.60;;;5.50;99.90;;;;;;4879496;29;20056;-83
2022/01/24 14:09:57;;;;;;;46.42;28.20;;;5.40;99.90;;;;;;4911322;29;20044;-83
2022/01/24 14:12:43;;;;;;;41.33;27.15;;;5.40;99.90;;;;;;4910912;29;20094;-83
2022/01/24 14:15:17;;;;;;;40.40;26.45;;;5.10;99.90;;;;;;4911531;29;20048;-83
2022/01/24 14:20:15;;;;;;;40.90;26.13;;;6.00;99.90;;;;;;4859677;29;1064642;-82
2022/01/24 14:22:46;;;;;;;42.05;27.17;;;5.80;99.90;;;;;;4895479;29;20078;-83
2022/01/24 14:25:21;;;;;;;43.30;27.10;;;5.10;99.90;;;;;;4912541;29;20063;-84
2022/01/24 14:28:13;;;;;;;42.95;27.50;;;4.60;99.90;;;;;;4881219;29;20051;-82
2022/01/24 14:30:46;;;;;;;41.22;27.08;;;5.90;99.90;;;;;;4846247;29;20052;-83
2022/01/24 14:33:19;;;;;;;41.22;27.58;;;5.80;99.90;;;;;;4880881;29;20048;-83
2022/01/24 14:35:58;;;;;;;42.30;27.13;;;6.10;99.90;;;;;;4880452;29;20108;-83
2022/01/24 14:38:34;;;;;;;40.72;26.45;;;5.00;99.90;;;;;;4895296;29;20487;-84
2022/01/24 14:41:05;;;;;;;41.45;26.70;;;5.00;99.90;;;;;;4896403;29;20062;-83
2022/01/24 14:46:27;;;;;;;45.20;28.15;;;6.00;99.90;;;;;;4896264;29;20103;-83
2022/01/24 14:48:59;;;;;;;47.30;27.50;;;4.80;99.90;;;;;;4911445;29;20056;-82
2022/01/24 14:51:30;;;;;;;37.53;25.48;;;5.60;99.90;;;;;;4911120;29;20062;-82
2022/01/24 14:54:15;;;;;;;39.53;25.80;;;4.90;99.90;;;;;;4895019;29;20062;-83
2022/01/24 14:57:01;;;;;;;36.60;24.05;;;4.80;99.90;;;;;;4912149;29;20056;-83
2022/01/24 14:59:28;;;;;;;38.03;25.42;;;4.90;99.90;;;;;;4911568;29;20062;-82
2022/01/24 15:01:54;;;;;;;37.80;23.27;;;4.90;99.90;;;;;;4911188;29;20040;-82
2022/01/24 15:04:43;;;;;;;38.42;23.05;;;4.20;99.90;;;;;;4911567;29;20055;-83
2022/01/24 15:07:07;;;;;;;34.53;23.20;;;4.90;99.90;;;;;;4895204;29;20067;-83
2022/01/24 15:09:35;;;;;;;35.95;23.02;;;5.50;99.90;;;;;;4911024;29;20052;-83
2022/01/24 15:12:06;;;;;;;37.67;23.60;;;5.40;99.90;;;;;;4910860;29;20048;-83
2022/01/24 15:14:36;;;;;;;35.72;22.55;;;4.90;99.90;;;;;;4879872;29;20496;-84
2022/01/24 15:17:22;;;;;;;36.22;22.48;;;5.40;99.90;;;;;;4911080;29;20052;-83
2022/01/24 15:23:59;;;;;;;38.80;23.48;;;5.40;99.90;;;;;;4875772;29;20402;-84
2022/01/24 15:25:42;;;;;;;38.13;24.27;;;4.40;99.90;;;;;;4875811;29;20052;-83
2022/01/24 15:28:09;;;;;;;35.90;23.35;;;5.70;99.90;;;;;;4892870;29;20056;-83
2022/01/24 15:30:35;;;;;;;36.17;22.73;;;4.80;99.90;;;;;;4877174;29;20155;-82
2022/01/24 15:33:16;;;;;;;38.38;24.83;;;4.80;99.90;;;;;;4875007;29;20203;-82
2022/01/24 15:35:45;;;;;;;36.63;24.13;;;4.30;99.90;;;;;;4875618;29;20132;-83
2022/01/24 15:38:40;;;;;;;36.90;23.55;;;5.00;99.90;;;;;;4892441;29;20124;-83
2022/01/24 15:41:06;;;;;;;36.45;22.33;;;5.10;99.90;;;;;;4871672;29;20108;-83
2022/01/24 15:43:53;;;;;;;37.00;22.35;;;5.70;99.90;;;;;;4875916;29;20591;-82
2022/01/24 15:46:46;;;;;;;39.17;24.00;;;5.20;99.90;;;;;;4875994;29;20137;-83
2022/01/24 15:49:19;;;;;;;37.45;23.42;;;4.80;99.90;;;;;;4876214;29;20063;-82
2022/01/24 15:51:45;;;;;;;36.95;22.83;;;4.50;99.90;;;;;;4875796;29;20060;-82
2022/01/24 15:54:13;;;;;;;37.97;24.27;;;4.80;99.90;;;;;;4883412;29;20044;-82
2022/01/24 15:59:05;;;;;;;43.33;24.95;;;4.80;99.90;;;;;;4885204;29;20144;-82
2022/01/24 16:01:33;;;;;;;37.97;24.67;;;4.70;99.90;;;;;;4875839;29;20468;-82
2022/01/24 16:03:59;;;;;;;38.92;24.63;;;4.70;99.90;;;;;;4894480;29;20147;-82
2022/01/24 16:06:34;;;;;;;37.03;24.05;;;5.20;99.90;;;;;;4894061;29;20048;-83
2022/01/24 16:09:08;;;;;;;39.33;24.83;;;4.70;99.90;;;;;;4878048;29;20056;-82
2022/01/24 16:12:00;;;;;;;39.95;25.27;;;4.70;99.90;;;;;;4876280;29;20056;-82
2022/01/24 16:14:26;;;;;;;40.33;25.20;;;4.10;99.90;;;;;;4880011;29;20086;-82
2022/01/24 16:16:53;;;;;;;38.30;24.27;;;4.60;99.90;;;;;;4884184;29;20561;-82
2022/01/24 16:19:21;;;;;;;41.80;26.10;;;4.70;99.90;;;;;;4883212;29;20056;-81
2022/01/24 16:22:00;;;;;;;39.67;25.15;;;4.60;99.90;;;;;;4883849;29;20142;-81